sensor_id;sensor_type;location;lat;lon;timestamp;pressure;altitude;pressure_sealevel;temperature;humidity
3664;BME280;1848;51.042;7.066;2022-07-19T00:01:03;100613.78;;;21.41;49.62
3664;BME280;1848;51.042;7.066;2022-07-19T00:03:29;100613.41;;;21.54;52.37
3664;BME280;1848;51.042;7.066;2022-07-19T00:05:56;100610.91;;;21.47;52.34
3664;BME280;1848;51.042;7.066;2022-07-19T00:08:22;100609.66;;;21.38;51.00
3664;BME280;1848;51.042;7.066;2022-07-19T00:10:49;100606.28;;;21.26;50.28
3664;BME280;1848;51.042;7.066;2022-07-19T00:13:22;100607.34;;;21.25;52.96
3664;BME280;1848;51.042;7.066;2022-07-19T00:15:49;100605.72;;;21.24;51.16
3664;BME280;1848;51.042;7.066;2022-07-19T00:18:15;100594.53;;;21.20;49.78
3664;BME280;1848;51.042;7.066;2022-07-19T00:20:42;100606.03;;;21.27;51.18
3664;BME280;1848;51.042;7.066;2022-07-19T00:23:08;100611.97;;;21.24;52.56
3664;BME280;1848;51.042;7.066;2022-07-19T00:25:34;100588.84;;;20.99;53.55
3664;BME280;1848;51.042;7.066;2022-07-19T00:28:01;100611.72;;;21.04;54.04
3664;BME280;1848;51.042;7.066;2022-07-19T00:30:27;100607.31;;;20.97;51.14
3664;BME280;1848;51.042;7.066;2022-07-19T00:32:54;100605.47;;;21.03;52.62
3664;BME280;1848;51.042;7.066;2022-07-19T00:35:20;100606.22;;;20.98;50.69
3664;BME280;1848;51.042;7.066;2022-07-19T00:37:47;100606.72;;;20.95;52.85
3664;BME280;1848;51.042;7.066;2022-07-19T00:40:24;100603.19;;;20.95;50.43
3664;BME280;1848;51.042;7.066;2022-07-19T00:42:51;100605.16;;;20.99;52.50
3664;BME280;1848;51.042;7.066;2022-07-19T00:45:18;100602.69;;;20.98;49.89
3664;BME280;1848;51.042;7.066;2022-07-19T00:47:44;100605.16;;;20.99;52.17
3664;BME280;1848;51.042;7.066;2022-07-19T00:50:11;100599.66;;;20.94;52.51
3664;BME280;1848;51.042;7.066;2022-07-19T00:52:38;100591.88;;;20.81;53.33
3664;BME280;1848;51.042;7.066;2022-07-19T00:55:07;100592.31;;;20.73;51.99
3664;BME280;1848;51.042;7.066;2022-07-19T00:57:35;100592.06;;;20.74;51.78
3664;BME280;1848;51.042;7.066;2022-07-19T01:00:07;100588.47;;;20.69;51.16
3664;BME280;1848;51.042;7.066;2022-07-19T01:02:35;100586.22;;;20.66;51.61
3664;BME280;1848;51.042;7.066;2022-07-19T01:05:02;100587.22;;;20.59;54.24
3664;BME280;1848;51.042;7.066;2022-07-19T01:07:29;100585.19;;;20.50;55.06
3664;BME280;1848;51.042;7.066;2022-07-19T01:09:55;100591.28;;;20.40;55.64
3664;BME280;1848;51.042;7.066;2022-07-19T01:12:22;100591.97;;;20.30;55.55
3664;BME280;1848;51.042;7.066;2022-07-19T01:14:50;100594.00;;;20.23;56.49
3664;BME280;1848;51.042;7.066;2022-07-19T01:17:21;100589.59;;;20.17;55.92
3664;BME280;1848;51.042;7.066;2022-07-19T01:19:47;100585.97;;;20.11;56.05
3664;BME280;1848;51.042;7.066;2022-07-19T01:22:14;100584.88;;;20.12;57.40
3664;BME280;1848;51.042;7.066;2022-07-19T01:24:40;100585.88;;;20.06;56.25
3664;BME280;1848;51.042;7.066;2022-07-19T01:27:07;100587.69;;;20.00;55.38
3664;BME280;1848;51.042;7.066;2022-07-19T01:29:34;100581.50;;;20.05;52.24
3664;BME280;1848;51.042;7.066;2022-07-19T01:32:05;100575.03;;;20.06;56.10
3664;BME280;1848;51.042;7.066;2022-07-19T01:34:32;100590.38;;;20.00;56.58
3664;BME280;1848;51.042;7.066;2022-07-19T01:36:58;100577.34;;;19.97;56.54
3664;BME280;1848;51.042;7.066;2022-07-19T01:39:25;100581.19;;;20.01;55.58
3664;BME280;1848;51.042;7.066;2022-07-19T01:41:51;100582.50;;;20.16;52.48
3664;BME280;1848;51.042;7.066;2022-07-19T01:44:17;100581.66;;;20.32;50.61
3664;BME280;1848;51.042;7.066;2022-07-19T01:46:44;100586.84;;;20.34;53.79
3664;BME280;1848;51.042;7.066;2022-07-19T01:49:10;100576.66;;;20.24;54.34
3664;BME280;1848;51.042;7.066;2022-07-19T01:51:37;100576.56;;;20.19;50.91
3664;BME280;1848;51.042;7.066;2022-07-19T01:54:03;100571.06;;;20.31;53.71
3664;BME280;1848;51.042;7.066;2022-07-19T01:56:29;100568.25;;;20.25;52.76
3664;BME280;1848;51.042;7.066;2022-07-19T01:58:56;100567.03;;;20.16;53.40
3664;BME280;1848;51.042;7.066;2022-07-19T02:01:22;100562.50;;;20.05;53.74
3664;BME280;1848;51.042;7.066;2022-07-19T02:03:49;100570.66;;;20.05;52.83
3664;BME280;1848;51.042;7.066;2022-07-19T02:06:15;100570.09;;;20.03;53.02
3664;BME280;1848;51.042;7.066;2022-07-19T02:08:42;100566.22;;;19.99;55.27
3664;BME280;1848;51.042;7.066;2022-07-19T02:11:08;100568.59;;;19.95;53.53
3664;BME280;1848;51.042;7.066;2022-07-19T02:13:53;100566.63;;;19.91;53.94
3664;BME280;1848;51.042;7.066;2022-07-19T02:16:20;100544.19;;;19.78;54.05
3664;BME280;1848;51.042;7.066;2022-07-19T02:18:46;100550.13;;;19.92;54.12
3664;BME280;1848;51.042;7.066;2022-07-19T02:21:13;100554.38;;;19.88;55.48
3664;BME280;1848;51.042;7.066;2022-07-19T02:23:39;100554.28;;;19.83;55.25
3664;BME280;1848;51.042;7.066;2022-07-19T02:26:05;100542.28;;;19.79;54.33
3664;BME280;1848;51.042;7.066;2022-07-19T02:28:32;100556.44;;;19.81;54.16
3664;BME280;1848;51.042;7.066;2022-07-19T02:30:58;100535.84;;;19.68;55.94
3664;BME280;1848;51.042;7.066;2022-07-19T02:33:25;100540.09;;;19.64;55.74
3664;BME280;1848;51.042;7.066;2022-07-19T02:35:51;100544.88;;;19.57;55.42
3664;BME280;1848;51.042;7.066;2022-07-19T02:38:18;100535.84;;;19.51;55.20
3664;BME280;1848;51.042;7.066;2022-07-19T02:40:44;100541.50;;;19.49;54.88
3664;BME280;1848;51.042;7.066;2022-07-19T02:43:11;100543.97;;;19.51;55.05
3664;BME280;1848;51.042;7.066;2022-07-19T02:45:37;100532.63;;;19.54;53.78
3664;BME280;1848;51.042;7.066;2022-07-19T02:48:03;100548.91;;;19.71;52.72
3664;BME280;1848;51.042;7.066;2022-07-19T02:50:31;100550.44;;;19.79;54.01
3664;BME280;1848;51.042;7.066;2022-07-19T02:52:57;100541.59;;;19.72;53.79
3664;BME280;1848;51.042;7.066;2022-07-19T02:55:24;100553.47;;;19.82;54.76
3664;BME280;1848;51.042;7.066;2022-07-19T02:57:50;100551.00;;;19.81;52.55
3664;BME280;1848;51.042;7.066;2022-07-19T03:00:16;100537.97;;;19.66;52.53
3664;BME280;1848;51.042;7.066;2022-07-19T03:02:43;100547.97;;;19.77;51.59
3664;BME280;1848;51.042;7.066;2022-07-19T03:05:09;100547.84;;;19.72;54.46
3664;BME280;1848;51.042;7.066;2022-07-19T03:07:36;100547.19;;;19.65;54.62
3664;BME280;1848;51.042;7.066;2022-07-19T03:10:04;100549.00;;;19.59;56.57
3664;BME280;1848;51.042;7.066;2022-07-19T03:12:30;100544.44;;;19.48;55.34
3664;BME280;1848;51.042;7.066;2022-07-19T03:14:56;100551.16;;;19.45;54.20
3664;BME280;1848;51.042;7.066;2022-07-19T03:17:23;100551.81;;;19.36;54.84
3664;BME280;1848;51.042;7.066;2022-07-19T03:19:49;100550.91;;;19.30;57.87
3664;BME280;1848;51.042;7.066;2022-07-19T03:22:16;100559.44;;;19.22;59.52
3664;BME280;1848;51.042;7.066;2022-07-19T03:24:42;100552.50;;;19.14;62.43
3664;BME280;1848;51.042;7.066;2022-07-19T03:27:09;100534.44;;;18.91;62.71
3664;BME280;1848;51.042;7.066;2022-07-19T03:29:35;100549.72;;;18.97;62.16
3664;BME280;1848;51.042;7.066;2022-07-19T03:32:02;100552.31;;;18.92;64.99
3664;BME280;1848;51.042;7.066;2022-07-19T03:34:29;100557.69;;;18.87;63.52
3664;BME280;1848;51.042;7.066;2022-07-19T03:36:55;100550.59;;;18.86;63.26
3664;BME280;1848;51.042;7.066;2022-07-19T03:39:22;100552.50;;;18.85;64.95
3664;BME280;1848;51.042;7.066;2022-07-19T03:41:48;100544.00;;;18.82;64.29
3664;BME280;1848;51.042;7.066;2022-07-19T03:44:15;100550.38;;;18.87;61.49
3664;BME280;1848;51.042;7.066;2022-07-19T03:46:41;100550.81;;;18.96;62.07
3664;BME280;1848;51.042;7.066;2022-07-19T03:49:08;100552.44;;;18.97;59.59
3664;BME280;1848;51.042;7.066;2022-07-19T03:51:34;100555.66;;;18.94;60.35
3664;BME280;1848;51.042;7.066;2022-07-19T03:54:01;100534.69;;;18.77;58.23
3664;BME280;1848;51.042;7.066;2022-07-19T03:56:27;100549.63;;;18.92;57.25
3664;BME280;1848;51.042;7.066;2022-07-19T03:58:54;100551.16;;;19.00;56.60
3664;BME280;1848;51.042;7.066;2022-07-19T04:01:20;100546.63;;;19.05;57.05
3664;BME280;1848;51.042;7.066;2022-07-19T04:03:49;100536.38;;;19.07;55.28
3664;BME280;1848;51.042;7.066;2022-07-19T04:06:15;100546.94;;;19.21;55.43
3664;BME280;1848;51.042;7.066;2022-07-19T04:08:42;100543.03;;;19.28;54.09
3664;BME280;1848;51.042;7.066;2022-07-19T04:11:08;100545.22;;;19.31;56.81
3664;BME280;1848;51.042;7.066;2022-07-19T04:13:35;100542.69;;;19.42;56.10
3664;BME280;1848;51.042;7.066;2022-07-19T04:16:03;100544.69;;;19.46;54.56
3664;BME280;1848;51.042;7.066;2022-07-19T04:18:29;100544.13;;;19.44;57.15
3664;BME280;1848;51.042;7.066;2022-07-19T04:20:56;100540.97;;;19.36;58.00
3664;BME280;1848;51.042;7.066;2022-07-19T04:23:22;100549.94;;;19.36;55.46
3664;BME280;1848;51.042;7.066;2022-07-19T04:25:49;100554.41;;;19.42;56.39
3664;BME280;1848;51.042;7.066;2022-07-19T04:28:15;100559.31;;;19.45;55.69
3664;BME280;1848;51.042;7.066;2022-07-19T04:30:42;100552.81;;;19.46;57.14
3664;BME280;1848;51.042;7.066;2022-07-19T04:33:08;100546.03;;;19.44;56.29
3664;BME280;1848;51.042;7.066;2022-07-19T04:35:35;100559.56;;;19.44;55.05
3664;BME280;1848;51.042;7.066;2022-07-19T04:38:01;100558.97;;;19.42;57.68
3664;BME280;1848;51.042;7.066;2022-07-19T04:40:27;100564.91;;;19.39;55.73
3664;BME280;1848;51.042;7.066;2022-07-19T04:42:54;100566.53;;;19.40;58.16
3664;BME280;1848;51.042;7.066;2022-07-19T04:45:20;100557.81;;;19.38;58.40
3664;BME280;1848;51.042;7.066;2022-07-19T04:47:47;100563.81;;;19.40;58.38
3664;BME280;1848;51.042;7.066;2022-07-19T04:50:13;100548.31;;;19.35;58.10
3664;BME280;1848;51.042;7.066;2022-07-19T04:52:40;100559.22;;;19.40;60.15
3664;BME280;1848;51.042;7.066;2022-07-19T04:55:07;100562.78;;;19.41;62.67
3664;BME280;1848;51.042;7.066;2022-07-19T04:57:33;100547.13;;;19.31;62.73
3664;BME280;1848;51.042;7.066;2022-07-19T05:00:00;100545.94;;;19.39;62.03
3664;BME280;1848;51.042;7.066;2022-07-19T05:02:26;100553.16;;;19.50;62.50
3664;BME280;1848;51.042;7.066;2022-07-19T05:04:53;100559.84;;;19.59;60.83
3664;BME280;1848;51.042;7.066;2022-07-19T05:07:19;100539.22;;;19.58;59.76
3664;BME280;1848;51.042;7.066;2022-07-19T05:09:46;100548.53;;;19.79;57.45
3664;BME280;1848;51.042;7.066;2022-07-19T05:12:12;100553.88;;;19.91;57.81
3664;BME280;1848;51.042;7.066;2022-07-19T05:14:39;100548.06;;;19.99;57.56
3664;BME280;1848;51.042;7.066;2022-07-19T05:17:05;100554.44;;;20.10;57.53
3664;BME280;1848;51.042;7.066;2022-07-19T05:19:32;100555.66;;;20.19;59.22
3664;BME280;1848;51.042;7.066;2022-07-19T05:21:58;100541.59;;;20.22;57.58
3664;BME280;1848;51.042;7.066;2022-07-19T05:24:25;100557.72;;;20.29;58.08
3664;BME280;1848;51.042;7.066;2022-07-19T05:26:51;100556.13;;;20.33;58.41
3664;BME280;1848;51.042;7.066;2022-07-19T05:29:18;100554.91;;;20.41;56.27
3664;BME280;1848;51.042;7.066;2022-07-19T05:31:45;100559.06;;;20.49;56.17
3664;BME280;1848;51.042;7.066;2022-07-19T05:34:11;100561.59;;;20.55;56.82
3664;BME280;1848;51.042;7.066;2022-07-19T05:36:38;100556.84;;;20.62;58.91
3664;BME280;1848;51.042;7.066;2022-07-19T05:39:04;100555.53;;;20.65;57.05
3664;BME280;1848;51.042;7.066;2022-07-19T05:41:31;100536.91;;;20.57;56.38
3664;BME280;1848;51.042;7.066;2022-07-19T05:43:58;100557.88;;;20.78;56.75
3664;BME280;1848;51.042;7.066;2022-07-19T05:46:27;100558.75;;;20.84;58.14
3664;BME280;1848;51.042;7.066;2022-07-19T05:48:54;100561.84;;;20.93;57.33
3664;BME280;1848;51.042;7.066;2022-07-19T05:51:20;100555.91;;;20.96;58.76
3664;BME280;1848;51.042;7.066;2022-07-19T05:53:47;100557.84;;;21.00;57.27
3664;BME280;1848;51.042;7.066;2022-07-19T05:56:13;100559.31;;;21.08;57.16
3664;BME280;1848;51.042;7.066;2022-07-19T05:58:40;100566.72;;;21.13;57.43
3664;BME280;1848;51.042;7.066;2022-07-19T06:01:06;100561.59;;;21.16;55.94
3664;BME280;1848;51.042;7.066;2022-07-19T06:03:47;100569.84;;;21.27;56.17
3664;BME280;1848;51.042;7.066;2022-07-19T06:06:23;100578.06;;;21.32;56.06
3664;BME280;1848;51.042;7.066;2022-07-19T06:08:50;100574.88;;;21.40;57.09
3664;BME280;1848;51.042;7.066;2022-07-19T06:11:17;100572.19;;;21.45;56.91
3664;BME280;1848;51.042;7.066;2022-07-19T06:13:45;100580.50;;;21.55;57.12
3664;BME280;1848;51.042;7.066;2022-07-19T06:16:12;100572.38;;;21.61;56.77
3664;BME280;1848;51.042;7.066;2022-07-19T06:18:40;100575.44;;;21.69;55.35
3664;BME280;1848;51.042;7.066;2022-07-19T06:21:17;100576.06;;;21.76;54.20
3664;BME280;1848;51.042;7.066;2022-07-19T06:23:45;100572.63;;;21.86;53.91
3664;BME280;1848;51.042;7.066;2022-07-19T06:26:13;100572.94;;;21.95;54.46
3664;BME280;1848;51.042;7.066;2022-07-19T06:28:40;100579.84;;;22.03;53.63
3664;BME280;1848;51.042;7.066;2022-07-19T06:31:14;100575.50;;;22.07;56.21
3664;BME280;1848;51.042;7.066;2022-07-19T06:33:42;100579.38;;;22.16;53.75
3664;BME280;1848;51.042;7.066;2022-07-19T06:36:09;100576.78;;;22.31;53.55
3664;BME280;1848;51.042;7.066;2022-07-19T06:38:35;100587.22;;;22.45;52.06
3664;BME280;1848;51.042;7.066;2022-07-19T06:41:02;100586.72;;;22.53;54.06
3664;BME280;1848;51.042;7.066;2022-07-19T06:43:29;100586.25;;;22.61;51.63
3664;BME280;1848;51.042;7.066;2022-07-19T06:45:55;100574.56;;;22.71;50.54
3664;BME280;1848;51.042;7.066;2022-07-19T06:48:22;100584.44;;;22.87;53.65
3664;BME280;1848;51.042;7.066;2022-07-19T06:50:48;100571.66;;;22.93;52.04
3664;BME280;1848;51.042;7.066;2022-07-19T06:53:15;100575.78;;;22.96;53.07
3664;BME280;1848;51.042;7.066;2022-07-19T06:55:41;100579.41;;;23.12;50.28
3664;BME280;1848;51.042;7.066;2022-07-19T06:58:08;100584.63;;;23.23;50.83
3664;BME280;1848;51.042;7.066;2022-07-19T07:00:34;100582.72;;;23.29;50.95
3664;BME280;1848;51.042;7.066;2022-07-19T07:03:01;100595.00;;;23.42;51.61
3664;BME280;1848;51.042;7.066;2022-07-19T07:05:27;100584.69;;;23.49;51.45
3664;BME280;1848;51.042;7.066;2022-07-19T07:07:54;100589.31;;;23.59;51.76
3664;BME280;1848;51.042;7.066;2022-07-19T07:10:21;100590.41;;;23.63;52.09
3664;BME280;1848;51.042;7.066;2022-07-19T07:12:47;100597.28;;;23.81;49.21
3664;BME280;1848;51.042;7.066;2022-07-19T07:15:15;100592.63;;;23.97;48.50
3664;BME280;1848;51.042;7.066;2022-07-19T07:17:42;100591.28;;;24.10;50.59
3664;BME280;1848;51.042;7.066;2022-07-19T07:20:09;100589.63;;;24.14;48.71
3664;BME280;1848;51.042;7.066;2022-07-19T07:22:36;100592.06;;;24.26;49.79
3664;BME280;1848;51.042;7.066;2022-07-19T07:25:03;100578.13;;;24.37;50.77
3664;BME280;1848;51.042;7.066;2022-07-19T07:27:30;100595.84;;;24.50;47.06
3664;BME280;1848;51.042;7.066;2022-07-19T07:29:56;100591.75;;;24.63;46.72
3664;BME280;1848;51.042;7.066;2022-07-19T07:32:23;100586.50;;;24.82;49.15
3664;BME280;1848;51.042;7.066;2022-07-19T07:34:53;100584.28;;;24.89;48.13
3664;BME280;1848;51.042;7.066;2022-07-19T07:37:20;100582.06;;;24.97;47.37
3664;BME280;1848;51.042;7.066;2022-07-19T07:39:46;100585.56;;;25.07;47.06
3664;BME280;1848;51.042;7.066;2022-07-19T07:42:13;100565.63;;;25.02;46.08
3664;BME280;1848;51.042;7.066;2022-07-19T07:44:40;100588.22;;;25.23;45.75
3664;BME280;1848;51.042;7.066;2022-07-19T07:47:07;100581.66;;;25.29;47.69
3664;BME280;1848;51.042;7.066;2022-07-19T07:49:38;100583.47;;;25.39;44.26
3664;BME280;1848;51.042;7.066;2022-07-19T07:52:05;100585.59;;;25.52;49.67
3664;BME280;1848;51.042;7.066;2022-07-19T07:54:33;100568.88;;;25.54;43.74
3664;BME280;1848;51.042;7.066;2022-07-19T07:57:02;100573.69;;;25.72;46.47
3664;BME280;1848;51.042;7.066;2022-07-19T07:59:29;100568.69;;;25.79;44.53
3664;BME280;1848;51.042;7.066;2022-07-19T08:01:55;100578.75;;;25.94;44.12
3664;BME280;1848;51.042;7.066;2022-07-19T08:04:26;100560.63;;;25.98;46.31
3664;BME280;1848;51.042;7.066;2022-07-19T08:06:53;100572.78;;;26.16;42.16
3664;BME280;1848;51.042;7.066;2022-07-19T08:09:20;100578.69;;;26.29;44.69
3664;BME280;1848;51.042;7.066;2022-07-19T08:11:47;100584.78;;;26.50;45.38
3664;BME280;1848;51.042;7.066;2022-07-19T08:14:13;100578.91;;;26.61;45.00
3664;BME280;1848;51.042;7.066;2022-07-19T08:16:40;100579.09;;;26.70;45.57
3664;BME280;1848;51.042;7.066;2022-07-19T08:19:06;100587.72;;;26.83;40.93
3664;BME280;1848;51.042;7.066;2022-07-19T08:21:33;100580.75;;;26.90;43.31
3664;BME280;1848;51.042;7.066;2022-07-19T08:23:59;100582.84;;;26.98;43.80
3664;BME280;1848;51.042;7.066;2022-07-19T08:26:26;100570.72;;;27.05;40.65
3664;BME280;1848;51.042;7.066;2022-07-19T08:28:52;100568.78;;;27.24;44.48
3664;BME280;1848;51.042;7.066;2022-07-19T08:31:19;100575.94;;;27.44;45.04
3664;BME280;1848;51.042;7.066;2022-07-19T08:33:46;100564.66;;;27.65;41.79
3664;BME280;1848;51.042;7.066;2022-07-19T08:36:13;100565.28;;;27.76;41.40
3664;BME280;1848;51.042;7.066;2022-07-19T08:38:39;100564.38;;;27.80;44.53
3664;BME280;1848;51.042;7.066;2022-07-19T08:41:06;100566.44;;;27.88;40.37
3664;BME280;1848;51.042;7.066;2022-07-19T08:43:33;100569.03;;;27.99;39.39
3664;BME280;1848;51.042;7.066;2022-07-19T08:46:01;100566.53;;;28.16;40.71
3664;BME280;1848;51.042;7.066;2022-07-19T08:48:34;100561.03;;;28.30;41.63
3664;BME280;1848;51.042;7.066;2022-07-19T08:51:12;100565.78;;;28.57;42.54
3664;BME280;1848;51.042;7.066;2022-07-19T08:53:38;100557.91;;;28.78;39.64
3664;BME280;1848;51.042;7.066;2022-07-19T08:56:07;100560.31;;;29.08;37.91
3664;BME280;1848;51.042;7.066;2022-07-19T08:58:53;100563.22;;;29.39;40.57
3664;BME280;1848;51.042;7.066;2022-07-19T09:01:20;100564.66;;;29.59;36.80
3664;BME280;1848;51.042;7.066;2022-07-19T09:04:11;100557.31;;;29.91;37.87
3664;BME280;1848;51.042;7.066;2022-07-19T09:06:38;100557.41;;;30.08;34.65
3664;BME280;1848;51.042;7.066;2022-07-19T09:09:05;100558.03;;;30.37;34.47
3664;BME280;1848;51.042;7.066;2022-07-19T09:11:40;100561.88;;;30.67;35.39
3664;BME280;1848;51.042;7.066;2022-07-19T09:14:16;100560.00;;;30.94;34.64
3664;BME280;1848;51.042;7.066;2022-07-19T09:16:55;100571.09;;;31.20;32.62
3664;BME280;1848;51.042;7.066;2022-07-19T09:19:24;100555.81;;;31.49;31.31
3664;BME280;1848;51.042;7.066;2022-07-19T09:21:56;100551.13;;;31.75;33.27
3664;BME280;1848;51.042;7.066;2022-07-19T09:24:25;100563.22;;;32.00;32.59
3664;BME280;1848;51.042;7.066;2022-07-19T09:27:09;100554.72;;;32.23;32.00
3664;BME280;1848;51.042;7.066;2022-07-19T09:29:38;100556.44;;;32.45;30.37
3664;BME280;1848;51.042;7.066;2022-07-19T09:34:38;100555.00;;;32.99;31.99
3664;BME280;1848;51.042;7.066;2022-07-19T09:37:17;100554.69;;;33.21;31.65
3664;BME280;1848;51.042;7.066;2022-07-19T09:39:47;100548.53;;;33.37;27.17
3664;BME280;1848;51.042;7.066;2022-07-19T09:42:16;100548.97;;;33.60;29.41
3664;BME280;1848;51.042;7.066;2022-07-19T09:44:43;100547.34;;;33.92;27.27
3664;BME280;1848;51.042;7.066;2022-07-19T09:47:10;100554.50;;;34.27;24.37
3664;BME280;1848;51.042;7.066;2022-07-19T09:49:38;100555.19;;;34.60;27.25
3664;BME280;1848;51.042;7.066;2022-07-19T09:52:04;100551.53;;;35.09;28.17
3664;BME280;1848;51.042;7.066;2022-07-19T09:54:31;100546.63;;;35.59;29.15
3664;BME280;1848;51.042;7.066;2022-07-19T09:56:59;100555.28;;;35.98;24.80
3664;BME280;1848;51.042;7.066;2022-07-19T09:59:26;100548.66;;;36.35;24.25
3664;BME280;1848;51.042;7.066;2022-07-19T10:01:55;100549.69;;;36.62;22.67
3664;BME280;1848;51.042;7.066;2022-07-19T10:04:24;100544.41;;;36.92;26.91
3664;BME280;1848;51.042;7.066;2022-07-19T10:06:51;100545.84;;;37.21;24.55
3664;BME280;1848;51.042;7.066;2022-07-19T10:09:20;100542.09;;;37.53;25.94
3664;BME280;1848;51.042;7.066;2022-07-19T10:11:55;100540.22;;;37.80;22.88
3664;BME280;1848;51.042;7.066;2022-07-19T10:14:21;100538.75;;;38.09;26.52
3664;BME280;1848;51.042;7.066;2022-07-19T10:19:39;100534.94;;;38.67;23.56
3664;BME280;1848;51.042;7.066;2022-07-19T10:22:21;100526.16;;;38.99;23.75
3664;BME280;1848;51.042;7.066;2022-07-19T10:24:55;100532.13;;;39.28;24.56
3664;BME280;1848;51.042;7.066;2022-07-19T10:32:29;100527.84;;;39.75;21.23
3664;BME280;1848;51.042;7.066;2022-07-19T10:40:43;100524.09;;;40.50;18.33
3664;BME280;1848;51.042;7.066;2022-07-19T10:45:42;100524.00;;;41.02;22.67
3664;BME280;1848;51.042;7.066;2022-07-19T10:48:13;100522.88;;;41.21;22.99
3664;BME280;1848;51.042;7.066;2022-07-19T10:53:53;100521.41;;;41.66;19.93
3664;BME280;1848;51.042;7.066;2022-07-19T10:56:29;100514.19;;;41.98;21.85
3664;BME280;1848;51.042;7.066;2022-07-19T10:58:59;100515.44;;;42.11;20.25
3664;BME280;1848;51.042;7.066;2022-07-19T11:01:29;100507.41;;;42.10;18.60
3664;BME280;1848;51.042;7.066;2022-07-19T11:06:48;100510.94;;;42.50;16.78
3664;BME280;1848;51.042;7.066;2022-07-19T11:09:15;100502.50;;;42.71;19.38
3664;BME280;1848;51.042;7.066;2022-07-19T11:11:44;100505.25;;;42.86;17.07
3664;BME280;1848;51.042;7.066;2022-07-19T11:14:11;100494.03;;;42.75;18.06
3664;BME280;1848;51.042;7.066;2022-07-19T11:16:38;100495.28;;;42.67;20.91
3664;BME280;1848;51.042;7.066;2022-07-19T11:19:09;100488.44;;;42.68;18.69
3664;BME280;1848;51.042;7.066;2022-07-19T11:21:37;100487.25;;;42.62;16.10
3664;BME280;1848;51.042;7.066;2022-07-19T11:24:04;100478.00;;;42.68;18.98
3664;BME280;1848;51.042;7.066;2022-07-19T11:26:36;100483.53;;;42.97;21.23
3664;BME280;1848;51.042;7.066;2022-07-19T11:29:12;100484.22;;;43.15;19.05
3664;BME280;1848;51.042;7.066;2022-07-19T11:31:46;100475.41;;;43.10;18.64
3664;BME280;1848;51.042;7.066;2022-07-19T11:34:14;100466.72;;;42.72;16.47
3664;BME280;1848;51.042;7.066;2022-07-19T11:36:40;100454.72;;;42.57;18.63
3664;BME280;1848;51.042;7.066;2022-07-19T11:39:07;100459.59;;;42.42;19.27
3664;BME280;1848;51.042;7.066;2022-07-19T11:41:33;100456.34;;;42.58;17.19
3664;BME280;1848;51.042;7.066;2022-07-19T11:44:07;100453.97;;;42.42;22.14
3664;BME280;1848;51.042;7.066;2022-07-19T11:46:39;100453.16;;;42.45;20.00
3664;BME280;1848;51.042;7.066;2022-07-19T11:49:09;100447.47;;;42.70;14.77
3664;BME280;1848;51.042;7.066;2022-07-19T11:51:36;100458.38;;;42.54;16.94
3664;BME280;1848;51.042;7.066;2022-07-19T11:54:05;100453.16;;;42.56;18.82
3664;BME280;1848;51.042;7.066;2022-07-19T11:56:34;100448.28;;;42.64;18.06
3664;BME280;1848;51.042;7.066;2022-07-19T11:59:04;100442.19;;;42.83;19.93
3664;BME280;1848;51.042;7.066;2022-07-19T12:01:34;100439.75;;;42.89;19.65
3664;BME280;1848;51.042;7.066;2022-07-19T12:04:06;100443.34;;;42.96;16.07
3664;BME280;1848;51.042;7.066;2022-07-19T12:06:38;100437.69;;;43.04;18.35
3664;BME280;1848;51.042;7.066;2022-07-19T12:09:13;100436.94;;;42.89;16.75
3664;BME280;1848;51.042;7.066;2022-07-19T12:11:54;100440.56;;;42.82;16.83
3664;BME280;1848;51.042;7.066;2022-07-19T12:14:27;100430.97;;;42.72;19.91
3664;BME280;1848;51.042;7.066;2022-07-19T12:17:13;100420.91;;;42.78;19.60
3664;BME280;1848;51.042;7.066;2022-07-19T12:19:46;100427.69;;;42.92;16.81
3664;BME280;1848;51.042;7.066;2022-07-19T12:22:28;100412.56;;;42.57;15.25
3664;BME280;1848;51.042;7.066;2022-07-19T12:24:55;100415.00;;;42.48;20.24
3664;BME280;1848;51.042;7.066;2022-07-19T12:27:27;100408.97;;;42.49;20.06
3664;BME280;1848;51.042;7.066;2022-07-19T12:29:55;100410.16;;;42.48;17.53
3664;BME280;1848;51.042;7.066;2022-07-19T12:35:00;100411.00;;;42.49;21.89
3664;BME280;1848;51.042;7.066;2022-07-19T12:42:51;100391.34;;;42.34;14.56
3664;BME280;1848;51.042;7.066;2022-07-19T12:45:29;100395.84;;;42.03;16.85
3664;BME280;1848;51.042;7.066;2022-07-19T12:47:56;100393.03;;;42.03;17.14
3664;BME280;1848;51.042;7.066;2022-07-19T12:50:29;100387.84;;;41.83;23.79
3664;BME280;1848;51.042;7.066;2022-07-19T12:52:59;100376.63;;;41.80;18.25
3664;BME280;1848;51.042;7.066;2022-07-19T12:55:27;100387.88;;;41.69;18.43
3664;BME280;1848;51.042;7.066;2022-07-19T12:57:55;100380.25;;;41.70;19.23
3664;BME280;1848;51.042;7.066;2022-07-19T13:00:23;100387.44;;;41.56;17.06
3664;BME280;1848;51.042;7.066;2022-07-19T13:02:51;100386.25;;;41.36;18.68
3664;BME280;1848;51.042;7.066;2022-07-19T13:05:18;100380.22;;;41.30;17.18
3664;BME280;1848;51.042;7.066;2022-07-19T13:07:45;100381.00;;;41.13;18.56
3664;BME280;1848;51.042;7.066;2022-07-19T13:10:12;100378.13;;;40.84;19.46
3664;BME280;1848;51.042;7.066;2022-07-19T13:12:40;100380.94;;;40.87;22.53
3664;BME280;1848;51.042;7.066;2022-07-19T13:15:07;100383.34;;;40.96;16.90
3664;BME280;1848;51.042;7.066;2022-07-19T13:17:34;100383.34;;;40.85;18.47
3664;BME280;1848;51.042;7.066;2022-07-19T13:20:01;100370.13;;;40.89;18.12
3664;BME280;1848;51.042;7.066;2022-07-19T13:22:28;100371.34;;;41.06;19.83
3664;BME280;1848;51.042;7.066;2022-07-19T13:24:54;100358.50;;;40.95;17.98
3664;BME280;1848;51.042;7.066;2022-07-19T13:27:41;100368.94;;;40.87;16.26
3664;BME280;1848;51.042;7.066;2022-07-19T13:30:07;100360.47;;;40.72;18.00
3664;BME280;1848;51.042;7.066;2022-07-19T13:32:34;100349.63;;;40.67;18.47
3664;BME280;1848;51.042;7.066;2022-07-19T13:35:01;100347.63;;;40.64;15.93
3664;BME280;1848;51.042;7.066;2022-07-19T13:37:28;100342.38;;;40.55;20.86
3664;BME280;1848;51.042;7.066;2022-07-19T13:39:55;100354.75;;;40.47;17.15
3664;BME280;1848;51.042;7.066;2022-07-19T13:42:22;100345.94;;;40.42;17.89
3664;BME280;1848;51.042;7.066;2022-07-19T13:44:48;100341.44;;;40.23;18.61
3664;BME280;1848;51.042;7.066;2022-07-19T13:47:15;100331.03;;;40.23;15.10